sensor_id;sensor_type;location;lat;lon;timestamp;P1;durP1;ratioP1;P2;durP2;ratioP2
4434;SDS011;46552;52.150;8.428;2022-07-23T00:00:32;10.97;;;7.97;;
4434;SDS011;46552;52.150;8.428;2022-07-23T00:02:59;13.30;;;8.40;;
4434;SDS011;46552;52.150;8.428;2022-07-23T00:05:27;15.90;;;8.87;;
4434;SDS011;46552;52.150;8.428;2022-07-23T00:07:55;18.47;;;9.23;;
4434;SDS011;46552;52.150;8.428;2022-07-23T00:10:23;15.70;;;7.93;;
4434;SDS011;46552;52.150;8.428;2022-07-23T00:12:51;18.33;;;8.90;;
4434;SDS011;46552;52.150;8.428;2022-07-23T00:15:18;13.43;;;9.27;;
4434;SDS011;46552;52.150;8.428;2022-07-23T00:17:45;16.77;;;10.83;;
4434;SDS011;46552;52.150;8.428;2022-07-23T00:20:12;13.10;;;8.87;;
4434;SDS011;46552;52.150;8.428;2022-07-23T00:22:45;16.47;;;9.87;;
4434;SDS011;46552;52.150;8.428;2022-07-23T00:25:13;13.13;;;9.60;;
4434;SDS011;46552;52.150;8.428;2022-07-23T00:27:42;13.57;;;10.00;;
4434;SDS011;46552;52.150;8.428;2022-07-23T00:30:10;16.23;;;9.83;;
4434;SDS011;46552;52.150;8.428;2022-07-23T00:32:46;17.97;;;9.30;;
4434;SDS011;46552;52.150;8.428;2022-07-23T00:35:14;16.17;;;8.93;;
4434;SDS011;46552;52.150;8.428;2022-07-23T00:37:42;18.00;;;10.27;;
4434;SDS011;46552;52.150;8.428;2022-07-23T00:40:09;17.73;;;9.43;;
4434;SDS011;46552;52.150;8.428;2022-07-23T00:42:38;17.13;;;8.90;;
4434;SDS011;46552;52.150;8.428;2022-07-23T00:45:07;15.90;;;9.70;;
4434;SDS011;46552;52.150;8.428;2022-07-23T00:47:35;20.03;;;9.27;;
4434;SDS011;46552;52.150;8.428;2022-07-23T00:50:03;13.63;;;8.83;;
4434;SDS011;46552;52.150;8.428;2022-07-23T00:52:33;13.77;;;8.97;;
4434;SDS011;46552;52.150;8.428;2022-07-23T00:55:02;17.30;;;9.10;;
4434;SDS011;46552;52.150;8.428;2022-07-23T00:57:30;18.33;;;9.87;;
4434;SDS011;46552;52.150;8.428;2022-07-23T00:59:58;25.00;;;8.90;;
4434;SDS011;46552;52.150;8.428;2022-07-23T01:02:27;13.33;;;8.20;;
4434;SDS011;46552;52.150;8.428;2022-07-23T01:04:54;12.93;;;8.43;;
4434;SDS011;46552;52.150;8.428;2022-07-23T01:07:21;13.10;;;9.00;;
4434;SDS011;46552;52.150;8.428;2022-07-23T01:09:50;13.53;;;10.07;;
4434;SDS011;46552;52.150;8.428;2022-07-23T01:12:18;14.23;;;9.00;;
4434;SDS011;46552;52.150;8.428;2022-07-23T01:14:49;14.73;;;9.17;;
4434;SDS011;46552;52.150;8.428;2022-07-23T01:17:20;12.87;;;8.87;;
4434;SDS011;46552;52.150;8.428;2022-07-23T01:19:49;11.00;;;7.83;;
4434;SDS011;46552;52.150;8.428;2022-07-23T01:22:17;13.70;;;9.00;;
4434;SDS011;46552;52.150;8.428;2022-07-23T01:24:46;16.07;;;8.90;;
4434;SDS011;46552;52.150;8.428;2022-07-23T01:27:13;15.33;;;9.50;;
4434;SDS011;46552;52.150;8.428;2022-07-23T01:29:42;21.13;;;8.90;;
4434;SDS011;46552;52.150;8.428;2022-07-23T01:32:11;18.93;;;8.93;;
4434;SDS011;46552;52.150;8.428;2022-07-23T01:34:38;18.27;;;9.90;;
4434;SDS011;46552;52.150;8.428;2022-07-23T01:37:06;19.80;;;9.60;;
4434;SDS011;46552;52.150;8.428;2022-07-23T01:39:34;15.87;;;9.90;;
4434;SDS011;46552;52.150;8.428;2022-07-23T01:42:02;17.23;;;8.70;;
4434;SDS011;46552;52.150;8.428;2022-07-23T01:44:29;14.40;;;9.53;;
4434;SDS011;46552;52.150;8.428;2022-07-23T01:46:57;18.23;;;9.70;;
4434;SDS011;46552;52.150;8.428;2022-07-23T01:49:24;21.90;;;10.50;;
4434;SDS011;46552;52.150;8.428;2022-07-23T01:51:51;14.93;;;10.23;;
4434;SDS011;46552;52.150;8.428;2022-07-23T01:54:34;26.73;;;10.57;;
4434;SDS011;46552;52.150;8.428;2022-07-23T01:57:03;18.33;;;11.27;;
4434;SDS011;46552;52.150;8.428;2022-07-23T01:59:30;18.07;;;10.80;;
4434;SDS011;46552;52.150;8.428;2022-07-23T02:01:58;13.70;;;9.57;;
4434;SDS011;46552;52.150;8.428;2022-07-23T02:04:25;12.37;;;9.37;;
4434;SDS011;46552;52.150;8.428;2022-07-23T02:06:54;17.17;;;10.63;;
4434;SDS011;46552;52.150;8.428;2022-07-23T02:09:21;17.27;;;10.83;;
4434;SDS011;46552;52.150;8.428;2022-07-23T02:11:48;20.60;;;9.50;;
4434;SDS011;46552;52.150;8.428;2022-07-23T02:14:17;16.50;;;11.33;;
4434;SDS011;46552;52.150;8.428;2022-07-23T02:16:44;17.57;;;11.50;;
4434;SDS011;46552;52.150;8.428;2022-07-23T02:19:11;27.77;;;10.80;;
4434;SDS011;46552;52.150;8.428;2022-07-23T02:21:38;19.57;;;10.10;;
4434;SDS011;46552;52.150;8.428;2022-07-23T02:24:06;25.57;;;10.53;;
4434;SDS011;46552;52.150;8.428;2022-07-23T02:26:34;15.53;;;11.07;;
4434;SDS011;46552;52.150;8.428;2022-07-23T02:29:01;20.30;;;10.87;;
4434;SDS011;46552;52.150;8.428;2022-07-23T02:31:31;25.93;;;11.03;;
4434;SDS011;46552;52.150;8.428;2022-07-23T02:33:59;21.93;;;11.33;;
4434;SDS011;46552;52.150;8.428;2022-07-23T02:36:26;16.40;;;11.80;;
4434;SDS011;46552;52.150;8.428;2022-07-23T02:38:54;20.50;;;10.97;;
4434;SDS011;46552;52.150;8.428;2022-07-23T02:41:21;19.37;;;10.43;;
4434;SDS011;46552;52.150;8.428;2022-07-23T02:43:49;25.13;;;10.20;;
4434;SDS011;46552;52.150;8.428;2022-07-23T02:46:16;31.20;;;11.80;;
4434;SDS011;46552;52.150;8.428;2022-07-23T02:48:45;17.53;;;11.37;;
4434;SDS011;46552;52.150;8.428;2022-07-23T02:51:12;14.30;;;10.40;;
4434;SDS011;46552;52.150;8.428;2022-07-23T02:53:39;17.90;;;10.00;;
4434;SDS011;46552;52.150;8.428;2022-07-23T02:56:06;21.73;;;11.73;;
4434;SDS011;46552;52.150;8.428;2022-07-23T02:58:35;23.33;;;11.20;;
4434;SDS011;46552;52.150;8.428;2022-07-23T03:01:02;23.30;;;11.13;;
4434;SDS011;46552;52.150;8.428;2022-07-23T03:03:30;19.27;;;11.33;;
4434;SDS011;46552;52.150;8.428;2022-07-23T03:05:59;23.43;;;10.00;;
4434;SDS011;46552;52.150;8.428;2022-07-23T03:08:26;17.63;;;10.30;;
4434;SDS011;46552;52.150;8.428;2022-07-23T03:10:53;16.07;;;9.20;;
4434;SDS011;46552;52.150;8.428;2022-07-23T03:13:20;18.43;;;11.33;;
4434;SDS011;46552;52.150;8.428;2022-07-23T03:15:48;19.63;;;9.87;;
4434;SDS011;46552;52.150;8.428;2022-07-23T03:18:15;16.57;;;11.00;;
4434;SDS011;46552;52.150;8.428;2022-07-23T03:20:42;20.57;;;11.17;;
4434;SDS011;46552;52.150;8.428;2022-07-23T03:23:11;17.13;;;10.97;;
4434;SDS011;46552;52.150;8.428;2022-07-23T03:25:38;21.70;;;11.13;;
4434;SDS011;46552;52.150;8.428;2022-07-23T03:28:05;23.53;;;10.37;;
4434;SDS011;46552;52.150;8.428;2022-07-23T03:30:32;20.57;;;12.80;;
4434;SDS011;46552;52.150;8.428;2022-07-23T03:32:59;24.07;;;11.50;;
4434;SDS011;46552;52.150;8.428;2022-07-23T03:35:26;25.17;;;12.97;;
4434;SDS011;46552;52.150;8.428;2022-07-23T03:37:54;20.10;;;13.20;;
4434;SDS011;46552;52.150;8.428;2022-07-23T03:40:23;30.67;;;12.17;;
4434;SDS011;46552;52.150;8.428;2022-07-23T03:42:50;18.23;;;11.50;;
4434;SDS011;46552;52.150;8.428;2022-07-23T03:45:18;20.27;;;12.13;;
4434;SDS011;46552;52.150;8.428;2022-07-23T03:47:45;21.67;;;10.67;;
4434;SDS011;46552;52.150;8.428;2022-07-23T03:50:12;31.23;;;11.87;;
4434;SDS011;46552;52.150;8.428;2022-07-23T03:52:40;26.03;;;11.63;;
4434;SDS011;46552;52.150;8.428;2022-07-23T03:55:08;27.27;;;11.10;;
4434;SDS011;46552;52.150;8.428;2022-07-23T03:57:37;24.07;;;11.60;;
4434;SDS011;46552;52.150;8.428;2022-07-23T04:00:05;21.00;;;11.10;;
4434;SDS011;46552;52.150;8.428;2022-07-23T04:02:34;23.73;;;11.90;;
4434;SDS011;46552;52.150;8.428;2022-07-23T04:05:01;25.17;;;12.53;;
4434;SDS011;46552;52.150;8.428;2022-07-23T04:07:28;20.20;;;11.07;;
4434;SDS011;46552;52.150;8.428;2022-07-23T04:09:57;35.53;;;12.33;;
4434;SDS011;46552;52.150;8.428;2022-07-23T04:12:25;16.77;;;11.27;;
4434;SDS011;46552;52.150;8.428;2022-07-23T04:14:54;32.30;;;10.63;;
4434;SDS011;46552;52.150;8.428;2022-07-23T04:17:21;18.97;;;10.93;;
4434;SDS011;46552;52.150;8.428;2022-07-23T04:19:50;21.27;;;11.20;;
4434;SDS011;46552;52.150;8.428;2022-07-23T04:22:18;18.00;;;10.80;;
4434;SDS011;46552;52.150;8.428;2022-07-23T04:24:46;30.73;;;10.47;;
4434;SDS011;46552;52.150;8.428;2022-07-23T04:27:15;22.33;;;11.40;;
4434;SDS011;46552;52.150;8.428;2022-07-23T04:29:42;21.63;;;11.83;;
4434;SDS011;46552;52.150;8.428;2022-07-23T04:32:11;20.23;;;10.97;;
4434;SDS011;46552;52.150;8.428;2022-07-23T04:34:38;23.10;;;12.53;;
4434;SDS011;46552;52.150;8.428;2022-07-23T04:37:06;25.80;;;12.47;;
4434;SDS011;46552;52.150;8.428;2022-07-23T04:39:33;21.40;;;10.60;;
4434;SDS011;46552;52.150;8.428;2022-07-23T04:42:00;20.10;;;10.40;;
4434;SDS011;46552;52.150;8.428;2022-07-23T04:44:27;19.37;;;11.27;;
4434;SDS011;46552;52.150;8.428;2022-07-23T04:46:55;23.73;;;11.83;;
4434;SDS011;46552;52.150;8.428;2022-07-23T04:49:23;19.67;;;11.60;;
4434;SDS011;46552;52.150;8.428;2022-07-23T04:51:51;17.57;;;9.60;;
4434;SDS011;46552;52.150;8.428;2022-07-23T04:54:18;18.93;;;10.40;;
4434;SDS011;46552;52.150;8.428;2022-07-23T04:56:45;22.17;;;10.80;;
4434;SDS011;46552;52.150;8.428;2022-07-23T04:59:11;18.10;;;10.17;;
4434;SDS011;46552;52.150;8.428;2022-07-23T05:01:38;17.07;;;10.00;;
4434;SDS011;46552;52.150;8.428;2022-07-23T05:04:06;19.83;;;10.67;;
4434;SDS011;46552;52.150;8.428;2022-07-23T05:06:35;36.87;;;11.97;;
4434;SDS011;46552;52.150;8.428;2022-07-23T05:09:02;17.83;;;10.57;;
4434;SDS011;46552;52.150;8.428;2022-07-23T05:11:31;17.47;;;11.23;;
4434;SDS011;46552;52.150;8.428;2022-07-23T05:13:58;22.80;;;11.50;;
4434;SDS011;46552;52.150;8.428;2022-07-23T05:16:25;19.67;;;10.53;;
4434;SDS011;46552;52.150;8.428;2022-07-23T05:18:52;25.17;;;10.83;;
4434;SDS011;46552;52.150;8.428;2022-07-23T05:21:20;18.63;;;10.00;;
4434;SDS011;46552;52.150;8.428;2022-07-23T05:23:48;20.10;;;11.33;;
4434;SDS011;46552;52.150;8.428;2022-07-23T05:26:15;16.83;;;10.07;;
4434;SDS011;46552;52.150;8.428;2022-07-23T05:28:42;24.33;;;10.27;;
4434;SDS011;46552;52.150;8.428;2022-07-23T05:31:09;25.17;;;10.90;;
4434;SDS011;46552;52.150;8.428;2022-07-23T05:33:36;16.93;;;9.80;;
4434;SDS011;46552;52.150;8.428;2022-07-23T05:36:04;19.20;;;11.27;;
4434;SDS011;46552;52.150;8.428;2022-07-23T05:38:32;16.47;;;10.67;;
4434;SDS011;46552;52.150;8.428;2022-07-23T05:41:00;27.03;;;11.77;;
4434;SDS011;46552;52.150;8.428;2022-07-23T05:43:28;14.37;;;9.90;;
4434;SDS011;46552;52.150;8.428;2022-07-23T05:45:55;27.00;;;11.80;;
4434;SDS011;46552;52.150;8.428;2022-07-23T05:48:23;30.43;;;12.23;;
4434;SDS011;46552;52.150;8.428;2022-07-23T05:50:50;23.43;;;11.13;;
4434;SDS011;46552;52.150;8.428;2022-07-23T05:53:17;23.80;;;10.77;;
4434;SDS011;46552;52.150;8.428;2022-07-23T05:55:45;20.73;;;10.27;;
4434;SDS011;46552;52.150;8.428;2022-07-23T05:58:15;17.93;;;10.30;;
4434;SDS011;46552;52.150;8.428;2022-07-23T06:00:42;14.63;;;11.10;;
4434;SDS011;46552;52.150;8.428;2022-07-23T06:03:09;17.70;;;10.40;;
4434;SDS011;46552;52.150;8.428;2022-07-23T06:05:37;22.00;;;12.07;;
4434;SDS011;46552;52.150;8.428;2022-07-23T06:08:04;16.77;;;10.17;;
4434;SDS011;46552;52.150;8.428;2022-07-23T06:10:41;21.93;;;11.43;;
4434;SDS011;46552;52.150;8.428;2022-07-23T06:13:08;25.80;;;11.87;;
4434;SDS011;46552;52.150;8.428;2022-07-23T06:15:38;16.20;;;10.23;;
4434;SDS011;46552;52.150;8.428;2022-07-23T06:18:05;19.13;;;9.40;;
4434;SDS011;46552;52.150;8.428;2022-07-23T06:20:32;20.93;;;10.63;;
4434;SDS011;46552;52.150;8.428;2022-07-23T06:22:59;24.27;;;12.00;;
4434;SDS011;46552;52.150;8.428;2022-07-23T06:25:27;17.83;;;9.10;;
4434;SDS011;46552;52.150;8.428;2022-07-23T06:27:56;16.73;;;9.23;;
4434;SDS011;46552;52.150;8.428;2022-07-23T06:30:23;17.20;;;10.27;;
4434;SDS011;46552;52.150;8.428;2022-07-23T06:32:51;17.43;;;10.40;;
4434;SDS011;46552;52.150;8.428;2022-07-23T06:35:19;17.60;;;9.83;;
4434;SDS011;46552;52.150;8.428;2022-07-23T06:37:46;17.23;;;9.30;;
4434;SDS011;46552;52.150;8.428;2022-07-23T06:40:14;16.60;;;8.27;;
4434;SDS011;46552;52.150;8.428;2022-07-23T06:42:41;17.70;;;7.13;;
4434;SDS011;46552;52.150;8.428;2022-07-23T06:45:09;14.20;;;6.90;;
4434;SDS011;46552;52.150;8.428;2022-07-23T06:47:36;10.97;;;6.77;;
4434;SDS011;46552;52.150;8.428;2022-07-23T06:50:05;12.40;;;7.17;;
4434;SDS011;46552;52.150;8.428;2022-07-23T06:52:33;16.40;;;7.20;;
4434;SDS011;46552;52.150;8.428;2022-07-23T06:55:00;13.73;;;6.57;;
4434;SDS011;46552;52.150;8.428;2022-07-23T06:57:27;15.13;;;6.43;;
4434;SDS011;46552;52.150;8.428;2022-07-23T06:59:55;10.30;;;6.87;;
4434;SDS011;46552;52.150;8.428;2022-07-23T07:02:23;10.20;;;6.07;;
4434;SDS011;46552;52.150;8.428;2022-07-23T07:04:50;14.20;;;8.03;;
4434;SDS011;46552;52.150;8.428;2022-07-23T07:07:19;11.97;;;6.97;;
4434;SDS011;46552;52.150;8.428;2022-07-23T07:09:47;10.37;;;6.70;;
4434;SDS011;46552;52.150;8.428;2022-07-23T07:12:14;13.63;;;6.60;;
4434;SDS011;46552;52.150;8.428;2022-07-23T07:14:41;14.13;;;6.77;;
4434;SDS011;46552;52.150;8.428;2022-07-23T07:17:08;8.97;;;6.30;;
4434;SDS011;46552;52.150;8.428;2022-07-23T07:19:36;13.00;;;7.10;;
4434;SDS011;46552;52.150;8.428;2022-07-23T07:22:04;10.37;;;6.80;;
4434;SDS011;46552;52.150;8.428;2022-07-23T07:24:34;13.77;;;6.67;;
4434;SDS011;46552;52.150;8.428;2022-07-23T07:27:01;13.33;;;6.23;;
4434;SDS011;46552;52.150;8.428;2022-07-23T07:29:28;15.40;;;6.50;;
4434;SDS011;46552;52.150;8.428;2022-07-23T07:31:56;8.47;;;5.97;;
4434;SDS011;46552;52.150;8.428;2022-07-23T07:34:23;9.30;;;6.47;;
4434;SDS011;46552;52.150;8.428;2022-07-23T07:36:51;19.33;;;5.87;;
4434;SDS011;46552;52.150;8.428;2022-07-23T07:39:19;8.80;;;6.10;;
4434;SDS011;46552;52.150;8.428;2022-07-23T07:41:48;10.73;;;6.47;;
4434;SDS011;46552;52.150;8.428;2022-07-23T07:44:16;13.90;;;6.90;;
4434;SDS011;46552;52.150;8.428;2022-07-23T07:46:43;12.17;;;7.40;;
4434;SDS011;46552;52.150;8.428;2022-07-23T07:49:10;10.70;;;6.20;;
4434;SDS011;46552;52.150;8.428;2022-07-23T07:51:38;11.70;;;7.73;;
4434;SDS011;46552;52.150;8.428;2022-07-23T07:54:05;19.70;;;6.50;;
4434;SDS011;46552;52.150;8.428;2022-07-23T07:56:32;11.00;;;7.13;;
4434;SDS011;46552;52.150;8.428;2022-07-23T07:59:02;14.07;;;7.53;;
4434;SDS011;46552;52.150;8.428;2022-07-23T08:01:29;12.60;;;7.90;;
4434;SDS011;46552;52.150;8.428;2022-07-23T08:03:56;13.20;;;9.10;;
4434;SDS011;46552;52.150;8.428;2022-07-23T08:06:23;11.43;;;7.70;;
4434;SDS011;46552;52.150;8.428;2022-07-23T08:08:50;14.03;;;8.33;;
4434;SDS011;46552;52.150;8.428;2022-07-23T08:11:17;12.30;;;7.17;;
4434;SDS011;46552;52.150;8.428;2022-07-23T08:13:44;10.43;;;7.13;;
4434;SDS011;46552;52.150;8.428;2022-07-23T08:16:13;12.93;;;7.03;;
4434;SDS011;46552;52.150;8.428;2022-07-23T08:18:40;13.53;;;8.20;;
4434;SDS011;46552;52.150;8.428;2022-07-23T08:21:07;12.83;;;7.20;;
4434;SDS011;46552;52.150;8.428;2022-07-23T08:23:35;14.20;;;6.37;;
4434;SDS011;46552;52.150;8.428;2022-07-23T08:26:03;14.00;;;7.20;;
4434;SDS011;46552;52.150;8.428;2022-07-23T08:28:30;13.10;;;6.70;;
4434;SDS011;46552;52.150;8.428;2022-07-23T08:30:58;9.80;;;7.33;;
4434;SDS011;46552;52.150;8.428;2022-07-23T08:33:28;15.60;;;5.57;;
4434;SDS011;46552;52.150;8.428;2022-07-23T08:35:55;8.47;;;5.13;;
4434;SDS011;46552;52.150;8.428;2022-07-23T08:38:22;11.83;;;5.10;;
4434;SDS011;46552;52.150;8.428;2022-07-23T08:40:51;10.37;;;5.63;;
4434;SDS011;46552;52.150;8.428;2022-07-23T08:43:21;8.20;;;6.30;;
4434;SDS011;46552;52.150;8.428;2022-07-23T08:45:49;12.77;;;5.03;;
4434;SDS011;46552;52.150;8.428;2022-07-23T08:48:19;9.30;;;4.40;;
4434;SDS011;46552;52.150;8.428;2022-07-23T08:50:52;11.43;;;4.27;;
4434;SDS011;46552;52.150;8.428;2022-07-23T08:53:21;7.13;;;4.77;;
4434;SDS011;46552;52.150;8.428;2022-07-23T08:55:51;9.73;;;5.50;;
4434;SDS011;46552;52.150;8.428;2022-07-23T08:58:21;11.40;;;5.40;;
4434;SDS011;46552;52.150;8.428;2022-07-23T09:00:50;7.40;;;4.70;;
4434;SDS011;46552;52.150;8.428;2022-07-23T09:03:18;15.00;;;6.27;;
4434;SDS011;46552;52.150;8.428;2022-07-23T09:05:47;11.60;;;6.10;;
4434;SDS011;46552;52.150;8.428;2022-07-23T09:08:20;10.43;;;5.37;;
4434;SDS011;46552;52.150;8.428;2022-07-23T09:10:50;7.83;;;4.83;;
4434;SDS011;46552;52.150;8.428;2022-07-23T09:13:28;10.50;;;5.17;;
4434;SDS011;46552;52.150;8.428;2022-07-23T09:15:58;8.80;;;4.13;;
4434;SDS011;46552;52.150;8.428;2022-07-23T09:18:33;8.63;;;3.67;;
4434;SDS011;46552;52.150;8.428;2022-07-23T09:21:07;9.53;;;4.70;;
4434;SDS011;46552;52.150;8.428;2022-07-23T09:23:40;8.93;;;4.40;;
4434;SDS011;46552;52.150;8.428;2022-07-23T09:26:20;8.37;;;4.17;;
4434;SDS011;46552;52.150;8.428;2022-07-23T09:28:56;6.77;;;4.83;;
4434;SDS011;46552;52.150;8.428;2022-07-23T09:31:43;10.50;;;3.73;;
4434;SDS011;46552;52.150;8.428;2022-07-23T09:34:13;8.27;;;4.03;;
4434;SDS011;46552;52.150;8.428;2022-07-23T09:36:43;7.07;;;3.47;;
4434;SDS011;46552;52.150;8.428;2022-07-23T09:39:13;4.90;;;2.80;;
4434;SDS011;46552;52.150;8.428;2022-07-23T09:41:43;6.00;;;2.90;;
4434;SDS011;46552;52.150;8.428;2022-07-23T09:44:13;4.40;;;2.57;;
4434;SDS011;46552;52.150;8.428;2022-07-23T09:46:43;5.73;;;2.70;;
4434;SDS011;46552;52.150;8.428;2022-07-23T09:49:16;6.80;;;2.87;;
4434;SDS011;46552;52.150;8.428;2022-07-23T09:51:47;7.13;;;2.50;;
4434;SDS011;46552;52.150;8.428;2022-07-23T09:54:21;5.27;;;3.00;;
4434;SDS011;46552;52.150;8.428;2022-07-23T09:57:00;5.33;;;2.70;;
4434;SDS011;46552;52.150;8.428;2022-07-23T09:59:32;9.87;;;2.67;;
4434;SDS011;46552;52.150;8.428;2022-07-23T10:02:01;7.60;;;3.57;;
4434;SDS011;46552;52.150;8.428;2022-07-23T10:04:30;4.87;;;2.90;;
4434;SDS011;46552;52.150;8.428;2022-07-23T10:07:00;5.83;;;2.70;;
4434;SDS011;46552;52.150;8.428;2022-07-23T10:09:29;9.80;;;2.10;;
4434;SDS011;46552;52.150;8.428;2022-07-23T10:11:59;3.80;;;2.07;;
4434;SDS011;46552;52.150;8.428;2022-07-23T10:14:34;6.63;;;2.30;;
4434;SDS011;46552;52.150;8.428;2022-07-23T10:17:02;6.83;;;2.17;;
4434;SDS011;46552;52.150;8.428;2022-07-23T10:19:30;4.93;;;1.80;;
4434;SDS011;46552;52.150;8.428;2022-07-23T10:22:00;2.93;;;1.43;;
4434;SDS011;46552;52.150;8.428;2022-07-23T10:24:38;3.33;;;2.10;;
4434;SDS011;46552;52.150;8.428;2022-07-23T10:30:28;8.10;;;2.30;;
4434;SDS011;46552;52.150;8.428;2022-07-23T10:33:03;7.10;;;2.23;;
4434;SDS011;46552;52.150;8.428;2022-07-23T10:35:43;7.80;;;2.30;;
4434;SDS011;46552;52.150;8.428;2022-07-23T10:38:18;5.67;;;2.63;;
4434;SDS011;46552;52.150;8.428;2022-07-23T10:40:55;8.07;;;2.73;;
4434;SDS011;46552;52.150;8.428;2022-07-23T10:43:24;4.37;;;1.90;;
4434;SDS011;46552;52.150;8.428;2022-07-23T10:45:52;6.03;;;2.03;;
4434;SDS011;46552;52.150;8.428;2022-07-23T10:48:19;3.90;;;1.93;;
4434;SDS011;46552;52.150;8.428;2022-07-23T10:51:06;6.63;;;2.00;;
4434;SDS011;46552;52.150;8.428;2022-07-23T10:53:55;3.23;;;1.70;;
4434;SDS011;46552;52.150;8.428;2022-07-23T10:59:30;3.87;;;1.93;;
4434;SDS011;46552;52.150;8.428;2022-07-23T11:04:49;4.00;;;1.80;;
4434;SDS011;46552;52.150;8.428;2022-07-23T11:07:18;2.80;;;1.53;;
4434;SDS011;46552;52.150;8.428;2022-07-23T11:09:47;3.40;;;1.50;;
4434;SDS011;46552;52.150;8.428;2022-07-23T11:12:33;4.73;;;1.70;;
4434;SDS011;46552;52.150;8.428;2022-07-23T11:15:04;4.30;;;1.80;;
4434;SDS011;46552;52.150;8.428;2022-07-23T11:17:35;5.93;;;1.63;;
4434;SDS011;46552;52.150;8.428;2022-07-23T11:20:15;7.40;;;1.67;;
4434;SDS011;46552;52.150;8.428;2022-07-23T11:22:48;4.60;;;1.80;;
4434;SDS011;46552;52.150;8.428;2022-07-23T11:25:30;7.27;;;2.00;;
4434;SDS011;46552;52.150;8.428;2022-07-23T11:28:13;6.57;;;1.70;;
4434;SDS011;46552;52.150;8.428;2022-07-23T11:30:43;4.17;;;1.50;;
4434;SDS011;46552;52.150;8.428;2022-07-23T11:33:18;2.97;;;1.30;;
4434;SDS011;46552;52.150;8.428;2022-07-23T11:35:48;6.23;;;1.43;;
4434;SDS011;46552;52.150;8.428;2022-07-23T11:38:25;4.20;;;1.40;;
4434;SDS011;46552;52.150;8.428;2022-07-23T11:40:54;3.50;;;1.63;;
4434;SDS011;46552;52.150;8.428;2022-07-23T11:43:23;3.50;;;1.83;;
4434;SDS011;46552;52.150;8.428;2022-07-23T11:45:51;6.53;;;2.23;;
4434;SDS011;46552;52.150;8.428;2022-07-23T11:48:20;6.00;;;2.10;;
4434;SDS011;46552;52.150;8.428;2022-07-23T11:50:49;5.50;;;1.80;;
4434;SDS011;46552;52.150;8.428;2022-07-23T11:53:21;4.50;;;2.10;;
4434;SDS011;46552;52.150;8.428;2022-07-23T11:55:50;3.23;;;1.87;;
4434;SDS011;46552;52.150;8.428;2022-07-23T11:58:18;2.70;;;1.63;;
4434;SDS011;46552;52.150;8.428;2022-07-23T12:00:46;2.97;;;1.47;;
4434;SDS011;46552;52.150;8.428;2022-07-23T12:03:15;8.37;;;1.57;;
4434;SDS011;46552;52.150;8.428;2022-07-23T12:05:42;3.10;;;1.60;;
4434;SDS011;46552;52.150;8.428;2022-07-23T12:08:09;3.40;;;1.37;;
4434;SDS011;46552;52.150;8.428;2022-07-23T12:10:38;5.70;;;2.00;;
4434;SDS011;46552;52.150;8.428;2022-07-23T12:13:08;6.50;;;1.70;;
4434;SDS011;46552;52.150;8.428;2022-07-23T12:15:39;3.37;;;1.50;;
4434;SDS011;46552;52.150;8.428;2022-07-23T12:18:07;8.50;;;2.00;;
4434;SDS011;46552;52.150;8.428;2022-07-23T12:20:36;2.80;;;1.30;;
4434;SDS011;46552;52.150;8.428;2022-07-23T12:23:05;5.17;;;1.60;;
4434;SDS011;46552;52.150;8.428;2022-07-23T12:25:34;3.20;;;1.40;;
4434;SDS011;46552;52.150;8.428;2022-07-23T12:28:04;8.20;;;1.80;;
4434;SDS011;46552;52.150;8.428;2022-07-23T12:30:34;3.30;;;1.27;;
4434;SDS011;46552;52.150;8.428;2022-07-23T12:33:06;10.90;;;1.70;;
4434;SDS011;46552;52.150;8.428;2022-07-23T12:35:35;7.33;;;2.27;;
4434;SDS011;46552;52.150;8.428;2022-07-23T12:38:05;2.60;;;1.10;;
4434;SDS011;46552;52.150;8.428;2022-07-23T12:40:33;6.87;;;1.13;;
4434;SDS011;46552;52.150;8.428;2022-07-23T12:43:03;2.67;;;1.30;;
4434;SDS011;46552;52.150;8.428;2022-07-23T12:45:46;5.07;;;1.57;;
4434;SDS011;46552;52.150;8.428;2022-07-23T12:48:18;3.63;;;1.53;;
4434;SDS011;46552;52.150;8.428;2022-07-23T12:50:51;5.77;;;1.50;;
4434;SDS011;46552;52.150;8.428;2022-07-23T12:53:21;3.30;;;1.03;;
4434;SDS011;46552;52.150;8.428;2022-07-23T12:55:51;2.97;;;1.47;;
4434;SDS011;46552;52.150;8.428;2022-07-23T12:58:24;3.83;;;1.23;;
4434;SDS011;46552;52.150;8.428;2022-07-23T13:00:57;6.50;;;1.33;;
4434;SDS011;46552;52.150;8.428;2022-07-23T13:03:27;3.90;;;1.60;;
4434;SDS011;46552;52.150;8.428;2022-07-23T13:05:57;6.03;;;1.47;;
4434;SDS011;46552;52.150;8.428;2022-07-23T13:08:26;6.20;;;1.50;;
4434;SDS011;46552;52.150;8.428;2022-07-23T13:10:54;3.37;;;1.20;;
4434;SDS011;46552;52.150;8.428;2022-07-23T13:13:23;2.30;;;1.27;;
4434;SDS011;46552;52.150;8.428;2022-07-23T13:15:52;5.70;;;2.03;;
4434;SDS011;46552;52.150;8.428;2022-07-23T13:18:23;6.43;;;1.37;;
4434;SDS011;46552;52.150;8.428;2022-07-23T13:20:50;3.67;;;1.17;;
4434;SDS011;46552;52.150;8.428;2022-07-23T13:23:18;5.33;;;1.57;;
4434;SDS011;46552;52.150;8.428;2022-07-23T13:25:45;3.07;;;1.40;;
4434;SDS011;46552;52.150;8.428;2022-07-23T13:28:13;3.60;;;1.33;;
4434;SDS011;46552;52.150;8.428;2022-07-23T13:30:41;3.50;;;1.10;;
4434;SDS011;46552;52.150;8.428;2022-07-23T13:33:13;2.53;;;0.93;;
4434;SDS011;46552;52.150;8.428;2022-07-23T13:35:40;2.20;;;1.10;;
4434;SDS011;46552;52.150;8.428;2022-07-23T13:38:07;3.70;;;1.20;;
4434;SDS011;46552;52.150;8.428;2022-07-23T13:40:35;3.33;;;1.40;;
4434;SDS011;46552;52.150;8.428;2022-07-23T13:43:04;9.83;;;1.50;;
4434;SDS011;46552;52.150;8.428;2022-07-23T13:45:32;4.30;;;1.40;;
4434;SDS011;46552;52.150;8.428;2022-07-23T13:47:59;5.90;;;2.33;;
4434;SDS011;46552;52.150;8.428;2022-07-23T13:50:30;3.03;;;1.20;;
4434;SDS011;46552;52.150;8.428;2022-07-23T13:52:59;4.43;;;1.10;;
4434;SDS011;46552;52.150;8.428;2022-07-23T13:55:28;2.27;;;1.23;;
4434;SDS011;46552;52.150;8.428;2022-07-23T13:57:55;5.40;;;1.60;;
4434;SDS011;46552;52.150;8.428;2022-07-23T14:00:23;5.67;;;1.60;;
4434;SDS011;46552;52.150;8.428;2022-07-23T14:02:50;5.57;;;1.47;;
4434;SDS011;46552;52.150;8.428;2022-07-23T14:05:17;6.73;;;1.53;;
4434;SDS011;46552;52.150;8.428;2022-07-23T14:07:46;4.27;;;1.73;;
4434;SDS011;46552;52.150;8.428;2022-07-23T14:10:15;2.53;;;1.50;;
4434;SDS011;46552;52.150;8.428;2022-07-23T14:12:43;3.10;;;1.20;;
4434;SDS011;46552;52.150;8.428;2022-07-23T14:15:11;6.00;;;1.40;;
4434;SDS011;46552;52.150;8.428;2022-07-23T14:17:39;9.93;;;1.80;;
4434;SDS011;46552;52.150;8.428;2022-07-23T14:20:08;3.90;;;1.30;;
4434;SDS011;46552;52.150;8.428;2022-07-23T14:22:36;4.47;;;1.10;;
4434;SDS011;46552;52.150;8.428;2022-07-23T14:25:08;2.67;;;1.23;;
4434;SDS011;46552;52.150;8.428;2022-07-23T14:27:35;4.27;;;1.70;;
4434;SDS011;46552;52.150;8.428;2022-07-23T14:30:04;13.43;;;2.33;;
4434;SDS011;46552;52.150;8.428;2022-07-23T14:32:32;3.53;;;1.53;;
4434;SDS011;46552;52.150;8.428;2022-07-23T14:34:59;3.80;;;1.20;;
4434;SDS011;46552;52.150;8.428;2022-07-23T14:37:27;6.30;;;1.47;;
4434;SDS011;46552;52.150;8.428;2022-07-23T14:39:54;1.80;;;1.03;;
4434;SDS011;46552;52.150;8.428;2022-07-23T14:42:24;2.83;;;1.30;;
4434;SDS011;46552;52.150;8.428;2022-07-23T14:44:51;3.20;;;1.57;;
4434;SDS011;46552;52.150;8.428;2022-07-23T14:47:18;3.63;;;1.43;;
4434;SDS011;46552;52.150;8.428;2022-07-23T14:49:47;4.53;;;1.23;;
4434;SDS011;46552;52.150;8.428;2022-07-23T14:52:15;7.23;;;1.90;;
4434;SDS011;46552;52.150;8.428;2022-07-23T14:54:43;2.80;;;1.37;;
4434;SDS011;46552;52.150;8.428;2022-07-23T14:57:10;6.27;;;1.57;;
4434;SDS011;46552;52.150;8.428;2022-07-23T14:59:39;3.93;;;1.67;;
4434;SDS011;46552;52.150;8.428;2022-07-23T15:02:07;3.50;;;1.67;;
4434;SDS011;46552;52.150;8.428;2022-07-23T15:04:34;3.83;;;1.47;;
4434;SDS011;46552;52.150;8.428;2022-07-23T15:07:04;3.20;;;1.60;;